createdAt,value
2023-06-17T00:00:40.455Z,85.82
2023-06-17T00:01:40.393Z,86.02
2023-06-17T00:02:40.419Z,86.02
2023-06-17T00:03:40.412Z,86.06
2023-06-17T00:04:40.362Z,86.06
2023-06-17T00:05:40.371Z,86.02
2023-06-17T00:06:40.373Z,86.13
2023-06-17T00:07:40.350Z,86.22
2023-06-17T00:08:40.344Z,86.06
2023-06-17T00:09:40.330Z,85.86
2023-06-17T00:10:40.356Z,85.92
2023-06-17T00:11:40.324Z,86.06
2023-06-17T00:12:40.293Z,85.61
2023-06-17T00:13:40.324Z,85.61
2023-06-17T00:14:40.291Z,86.13
2023-06-17T00:15:40.283Z,86.16
2023-06-17T00:16:40.278Z,86.06
2023-06-17T00:17:40.269Z,86.13
2023-06-17T00:18:40.287Z,86.16
2023-06-17T00:20:39.803Z,85.86
2023-06-17T00:21:39.807Z,85.86
2023-06-17T00:22:40.979Z,85.86
2023-06-17T00:23:41.663Z,86.27
2023-06-17T00:24:40.868Z,86.16
2023-06-17T00:25:40.841Z,86.57
2023-06-17T00:26:40.836Z,86.47
2023-06-17T00:27:41.860Z,86.47
2023-06-17T00:28:40.820Z,86.77
2023-06-17T00:29:40.814Z,87.32
2023-06-17T00:30:40.823Z,87.23
2023-06-17T00:31:40.810Z,87.23
2023-06-17T00:32:40.795Z,87.43
2023-06-17T00:33:40.792Z,87.53
2023-06-17T00:34:40.770Z,87.43
2023-06-17T00:35:40.806Z,87.53
2023-06-17T00:36:40.755Z,87.43
2023-06-17T00:37:40.759Z,87.57
2023-06-17T00:38:40.764Z,87.37
2023-06-17T00:39:40.741Z,87.32
2023-06-17T00:40:40.749Z,87.77
2023-06-17T00:41:40.716Z,87.57
2023-06-17T00:42:40.736Z,87.37
2023-06-17T00:43:40.693Z,87.47
2023-06-17T00:44:40.707Z,87.98
2023-06-17T00:45:40.844Z,88.08
2023-06-17T00:46:40.668Z,88.08
2023-06-17T00:47:41.796Z,88.18
2023-06-17T00:48:40.659Z,88.08
2023-06-17T00:49:40.648Z,87.98
2023-06-17T00:50:40.643Z,88.08
2023-06-17T00:51:40.636Z,88.49
2023-06-17T00:52:42.912Z,88.22
2023-06-17T00:53:41.607Z,88.79
2023-06-17T00:54:40.628Z,88.84
2023-06-17T00:55:41.667Z,88.93
2023-06-17T00:56:40.591Z,89.04
2023-06-17T00:57:40.573Z,89.25
2023-06-17T00:58:40.592Z,89.14
2023-06-17T00:59:40.569Z,88.43
2023-06-17T01:00:40.564Z,88.93
2023-06-17T01:01:40.551Z,88.63
2023-06-17T01:02:40.598Z,88.43
2023-06-17T01:03:41.276Z,89.14
2023-06-17T01:04:40.515Z,88.93
2023-06-17T01:05:40.531Z,88.43
2023-06-17T01:06:40.515Z,88.73
2023-06-17T01:07:40.504Z,88.32
2023-06-17T01:08:40.499Z,88.53
2023-06-17T01:09:40.485Z,88.43
2023-06-17T01:10:40.513Z,88.73
2023-06-17T01:11:40.477Z,88.43
2023-06-17T01:12:40.478Z,88.22
2023-06-17T01:13:40.459Z,88.53
2023-06-17T01:14:40.444Z,87.92
2023-06-17T01:15:40.445Z,87.98
2023-06-17T01:16:41.330Z,88.02
2023-06-17T01:17:40.441Z,88.18
2023-06-17T01:18:40.413Z,88.02
2023-06-17T01:19:40.409Z,88.02
2023-06-17T01:20:40.427Z,88.12
2023-06-17T01:21:40.388Z,88.53
2023-06-17T01:22:40.380Z,87.98
2023-06-17T01:23:40.428Z,87.57
2023-06-17T01:24:40.378Z,87.67
2023-06-17T01:25:40.383Z,87.37
2023-06-17T01:26:40.361Z,87.37
2023-06-17T01:27:40.361Z,87.51
2023-06-17T01:28:40.347Z,87.57
2023-06-17T01:29:40.334Z,87.37
2023-06-17T01:30:40.329Z,87.37
2023-06-17T01:31:40.315Z,87.37
2023-06-17T01:32:40.410Z,88.73
2023-06-17T01:33:40.298Z,88.28
2023-06-17T01:34:40.337Z,88.28
2023-06-17T01:35:40.281Z,88.79
2023-06-17T01:36:41.281Z,89.20
2023-06-17T01:37:40.275Z,89.40
2023-06-17T01:38:40.266Z,89.81
2023-06-17T01:39:40.269Z,89.51
2023-06-17T01:40:40.232Z,89.92
2023-06-17T01:41:40.239Z,89.71
2023-06-17T01:42:40.223Z,89.40
2023-06-17T01:43:40.203Z,89.61
2023-06-17T01:44:40.220Z,88.18
2023-06-17T01:45:40.236Z,88.08
2023-06-17T01:46:40.181Z,87.92
2023-06-17T01:47:40.333Z,87.82
2023-06-17T01:48:40.186Z,88.02
2023-06-17T01:49:40.167Z,87.82
2023-06-17T01:50:40.175Z,88.22
2023-06-17T01:51:40.678Z,88.93
2023-06-17T01:52:40.143Z,88.84
2023-06-17T01:53:40.160Z,88.22
2023-06-17T01:54:40.145Z,88.57
2023-06-17T01:55:40.117Z,88.78
2023-06-17T01:56:40.116Z,88.37
2023-06-17T01:57:40.098Z,88.37
2023-06-17T01:58:40.091Z,88.78
2023-06-17T01:59:40.085Z,88.47
2023-06-17T02:00:40.078Z,89.08
2023-06-17T02:01:40.057Z,89.59
2023-06-17T02:02:40.168Z,89.90
2023-06-17T02:03:40.098Z,90.41
2023-06-17T02:04:40.048Z,90.41
2023-06-17T02:05:40.029Z,90.81
2023-06-17T02:06:40.020Z,90.61
2023-06-17T02:07:40.021Z,90.51
2023-06-17T02:08:39.993Z,90.00
2023-06-17T02:09:40.056Z,90.51
2023-06-17T02:10:39.991Z,90.92
2023-06-17T02:11:39.993Z,90.92
2023-06-17T02:12:39.979Z,90.81
2023-06-17T02:13:39.972Z,90.92
2023-06-17T02:14:39.964Z,90.10
2023-06-17T02:15:40.047Z,90.81
2023-06-17T02:16:39.988Z,91.12
2023-06-17T02:17:39.965Z,91.12
2023-06-17T02:18:39.916Z,91.47
2023-06-17T02:19:39.933Z,91.27
2023-06-17T02:20:39.911Z,91.47
2023-06-17T02:21:39.891Z,91.27
2023-06-17T02:22:39.892Z,91.27
2023-06-17T02:23:39.889Z,90.92
2023-06-17T02:24:39.952Z,91.06
2023-06-17T02:25:39.900Z,91.27
2023-06-17T02:26:39.860Z,91.16
2023-06-17T02:27:39.848Z,91.47
2023-06-17T02:28:39.861Z,91.27
2023-06-17T02:29:39.825Z,91.37
2023-06-17T02:30:39.864Z,91.57
2023-06-17T02:31:39.875Z,91.27
2023-06-17T02:32:39.836Z,91.83
2023-06-17T02:33:39.849Z,91.78
2023-06-17T02:34:39.793Z,91.16
2023-06-17T02:35:40.293Z,91.37
2023-06-17T02:36:39.767Z,91.88
2023-06-17T02:37:39.770Z,91.67
2023-06-17T02:38:39.770Z,91.47
2023-06-17T02:39:39.754Z,91.27
2023-06-17T02:40:39.758Z,91.16
2023-06-17T02:41:39.729Z,91.88
2023-06-17T02:42:39.709Z,91.16
2023-06-17T02:43:40.718Z,91.16
2023-06-17T02:44:39.733Z,90.96
2023-06-17T02:45:39.712Z,90.75
2023-06-17T02:46:39.773Z,90.49
2023-06-17T02:47:39.689Z,89.67
2023-06-17T02:48:40.660Z,90.08
2023-06-17T02:49:39.679Z,90.29
2023-06-17T02:50:39.669Z,90.29
2023-06-17T02:51:39.656Z,90.70
2023-06-17T02:52:39.632Z,90.39
2023-06-17T02:53:39.634Z,91.31
2023-06-17T02:54:39.630Z,92.02
2023-06-17T02:55:40.279Z,91.92
2023-06-17T02:56:39.614Z,91.92
2023-06-17T02:57:39.592Z,92.02
2023-06-17T02:58:39.597Z,91.72
2023-06-17T02:59:39.586Z,92.02
2023-06-17T03:00:39.584Z,92.43
2023-06-17T03:01:39.571Z,92.13
2023-06-17T03:02:39.690Z,92.23
2023-06-17T03:03:39.544Z,92.02
2023-06-17T03:04:39.555Z,91.82
2023-06-17T03:05:39.550Z,92.13
2023-06-17T03:06:39.526Z,92.23
2023-06-17T03:07:39.504Z,92.02
2023-06-17T03:08:40.511Z,91.98
2023-06-17T03:09:39.498Z,92.02
2023-06-17T03:10:39.494Z,92.23
2023-06-17T03:11:39.489Z,92.02
2023-06-17T03:12:39.481Z,91.82
2023-06-17T03:13:39.492Z,92.13
2023-06-17T03:14:39.457Z,91.82
2023-06-17T03:15:39.453Z,91.61
2023-06-17T03:16:39.656Z,91.82
2023-06-17T03:17:39.516Z,92.02
2023-06-17T03:18:39.446Z,91.61
2023-06-17T03:19:39.437Z,91.31
2023-06-17T03:20:39.458Z,91.31
2023-06-17T03:21:39.416Z,91.61
2023-06-17T03:22:39.393Z,91.31
2023-06-17T03:23:39.383Z,91.31
2023-06-17T03:24:39.411Z,91.37
2023-06-17T03:25:39.370Z,91.27
2023-06-17T03:26:39.372Z,91.47
2023-06-17T03:27:39.355Z,91.31
2023-06-17T03:28:39.353Z,91.20
2023-06-17T03:29:39.337Z,91.20
2023-06-17T03:30:39.347Z,91.11
2023-06-17T03:31:39.343Z,91.20
2023-06-17T03:32:39.330Z,91.11
2023-06-17T03:33:39.324Z,90.90
2023-06-17T03:34:39.304Z,91.20
2023-06-17T03:35:39.328Z,91.11
2023-06-17T03:36:39.282Z,91.11
2023-06-17T03:37:39.277Z,91.20
2023-06-17T03:38:39.283Z,90.80
2023-06-17T03:39:39.249Z,90.55
2023-06-17T03:40:39.304Z,90.61
2023-06-17T03:41:39.240Z,89.65
2023-06-17T03:42:39.234Z,87.98
2023-06-17T03:43:39.790Z,87.18
2023-06-17T03:44:39.210Z,85.96
2023-06-17T03:45:39.216Z,85.25
2023-06-17T03:46:39.211Z,85.25
2023-06-17T03:47:39.259Z,84.84
2023-06-17T03:48:39.198Z,84.43
2023-06-17T03:49:39.175Z,84.64
2023-06-17T03:50:39.170Z,84.74
2023-06-17T03:51:39.168Z,84.84
2023-06-17T03:52:39.150Z,85.39
2023-06-17T03:53:39.136Z,84.78
2023-06-17T03:54:39.137Z,84.47
2023-06-17T03:55:39.140Z,83.86
2023-06-17T03:56:39.112Z,83.62
2023-06-17T03:57:39.108Z,83.21
2023-06-17T03:58:39.095Z,82.12
2023-06-17T03:59:39.093Z,81.06
2023-06-17T04:00:39.082Z,79.29
2023-06-17T04:01:39.073Z,77.83
2023-06-17T04:02:39.160Z,77.33
2023-06-17T04:03:39.123Z,77.19
2023-06-17T04:04:39.882Z,76.40
2023-06-17T04:05:39.037Z,75.96
2023-06-17T04:06:39.035Z,75.12
2023-06-17T04:07:39.024Z,74.48
2023-06-17T04:08:39.024Z,74.44
2023-06-17T04:09:39.059Z,73.05
2023-06-17T04:10:39.004Z,71.37
2023-06-17T04:11:38.998Z,71.13
2023-06-17T04:12:39.007Z,70.09
2023-06-17T04:13:38.990Z,68.64
2023-06-17T04:14:38.986Z,68.71
2023-06-17T04:15:38.988Z,66.66
2023-06-17T04:16:38.963Z,66.19
2023-06-17T04:17:38.983Z,64.95
2023-06-17T04:18:38.942Z,64.02
2023-06-17T04:19:38.958Z,62.88
2023-06-17T04:20:38.926Z,63.48
2023-06-17T04:21:38.926Z,62.05
2023-06-17T04:22:38.908Z,61.38
2023-06-17T04:23:38.890Z,60.55
2023-06-17T04:24:38.922Z,59.52
2023-06-17T04:25:38.877Z,58.99
2023-06-17T04:26:38.890Z,57.76
2023-06-17T04:27:38.869Z,57.86
2023-06-17T04:28:38.853Z,57.33
2023-06-17T04:29:38.856Z,57.26
2023-06-17T04:30:39.734Z,57.06
2023-06-17T04:31:38.840Z,57.96
2023-06-17T04:32:38.851Z,57.35
2023-06-17T04:33:39.798Z,57.59
2023-06-17T04:34:38.825Z,59.01
2023-06-17T04:35:38.807Z,58.72
2023-06-17T04:36:38.783Z,57.48
2023-06-17T04:37:38.808Z,56.83
2023-06-17T04:38:38.797Z,56.17
2023-06-17T04:39:38.774Z,55.40
2023-06-17T04:40:38.766Z,56.20
2023-06-17T04:41:38.749Z,56.63
2023-06-17T04:42:38.746Z,56.63
2023-06-17T04:43:38.741Z,56.13
2023-06-17T04:44:38.735Z,56.30
2023-06-17T04:45:38.736Z,55.50
2023-06-17T04:46:38.739Z,55.80
2023-06-17T04:47:38.755Z,56.00
2023-06-17T04:48:38.843Z,54.94
2023-06-17T04:49:38.692Z,54.42
2023-06-17T04:50:38.697Z,53.79
2023-06-17T04:51:38.674Z,53.39
2023-06-17T04:52:38.681Z,53.72
2023-06-17T04:53:38.661Z,54.19
2023-06-17T04:54:38.670Z,54.44
2023-06-17T04:55:38.653Z,54.32
2023-06-17T04:56:38.638Z,53.39
2023-06-17T04:57:38.644Z,52.77
2023-06-17T04:58:39.335Z,52.94
2023-06-17T04:59:38.620Z,51.50
2023-06-17T05:00:38.740Z,50.74
2023-06-17T05:01:38.611Z,50.05
2023-06-17T05:02:39.289Z,50.32
2023-06-17T05:03:38.674Z,50.20
2023-06-17T05:04:38.580Z,49.80
2023-06-17T05:05:38.580Z,48.71
2023-06-17T05:06:38.564Z,50.52
2023-06-17T05:07:38.562Z,49.83
2023-06-17T05:08:38.543Z,49.28
2023-06-17T05:09:38.536Z,49.06
2023-06-17T05:10:38.544Z,48.66
2023-06-17T05:11:38.524Z,48.98
2023-06-17T05:12:38.540Z,50.85
2023-06-17T05:13:38.505Z,51.03
2023-06-17T05:14:38.501Z,50.35
2023-06-17T05:15:38.500Z,51.20
2023-06-17T05:16:38.591Z,51.47
2023-06-17T05:17:38.519Z,49.95
2023-06-17T05:18:38.478Z,50.50
2023-06-17T05:19:38.473Z,49.48
2023-06-17T05:20:38.458Z,48.46
2023-06-17T05:21:38.455Z,48.56
2023-06-17T05:22:38.467Z,49.88
2023-06-17T05:23:38.427Z,49.48
2023-06-17T05:24:38.609Z,48.96
2023-06-17T05:25:38.417Z,49.04
2023-06-17T05:26:38.412Z,48.74
2023-06-17T05:27:38.440Z,48.10
2023-06-17T05:28:38.399Z,47.00
2023-06-17T05:29:39.893Z,47.82
2023-06-17T05:30:39.506Z,48.10
2023-06-17T05:31:38.376Z,46.98
2023-06-17T05:32:38.409Z,46.56
2023-06-17T05:33:39.343Z,46.86
2023-06-17T05:34:38.361Z,47.28
2023-06-17T05:35:38.362Z,48.17
2023-06-17T05:36:38.339Z,46.44
2023-06-17T05:37:38.338Z,46.86
2023-06-17T05:38:38.318Z,47.55
2023-06-17T05:39:38.323Z,46.24
2023-06-17T05:40:38.317Z,45.92
2023-06-17T05:41:38.311Z,44.98
2023-06-17T05:42:38.305Z,43.97
2023-06-17T05:43:38.291Z,43.63
2023-06-17T05:44:38.285Z,44.13
2023-06-17T05:45:38.285Z,43.21
2023-06-17T05:46:38.400Z,42.70
2023-06-17T05:47:38.288Z,42.72
2023-06-17T05:48:38.849Z,43.02
2023-06-17T05:49:38.265Z,43.95
2023-06-17T05:50:38.773Z,44.67
2023-06-17T05:51:38.230Z,44.07
2023-06-17T05:52:38.231Z,44.86
2023-06-17T05:53:38.214Z,44.45
2023-06-17T05:54:38.222Z,43.71
2023-06-17T05:55:38.228Z,43.10
2023-06-17T05:56:38.207Z,42.38
2023-06-17T05:57:38.197Z,42.01
2023-06-17T05:58:38.184Z,42.29
2023-06-17T05:59:38.179Z,41.91
2023-06-17T06:00:38.187Z,42.48
2023-06-17T06:01:38.224Z,41.69
2023-06-17T06:02:38.185Z,42.08
2023-06-17T06:03:38.885Z,42.26
2023-06-17T06:04:38.150Z,41.33
2023-06-17T06:05:38.173Z,41.41
2023-06-17T06:06:38.126Z,40.53
2023-06-17T06:07:38.131Z,41.22
2023-06-17T06:08:38.119Z,40.03
2023-06-17T06:09:38.113Z,40.76
2023-06-17T06:10:38.123Z,41.65
2023-06-17T06:11:38.112Z,42.48
2023-06-17T06:12:38.097Z,42.58
2023-06-17T06:13:38.125Z,42.26
2023-06-17T06:14:38.096Z,42.90
2023-06-17T06:15:38.077Z,42.48
2023-06-17T06:16:38.084Z,42.16
2023-06-17T06:17:38.119Z,42.26
2023-06-17T06:18:38.045Z,42.26
2023-06-17T06:19:38.054Z,42.80
2023-06-17T06:20:38.067Z,42.50
2023-06-17T06:21:38.039Z,42.82
2023-06-17T06:22:38.062Z,43.93
2023-06-17T06:23:38.029Z,42.82
2023-06-17T06:24:38.122Z,43.61
2023-06-17T06:25:38.001Z,42.58
2023-06-17T06:26:38.006Z,42.05
2023-06-17T06:27:38.007Z,42.36
2023-06-17T06:28:37.989Z,42.96
2023-06-17T06:29:37.978Z,43.25
2023-06-17T06:30:37.985Z,42.44
2023-06-17T06:31:38.026Z,43.27
2023-06-17T06:32:37.993Z,43.19
2023-06-17T06:33:37.963Z,43.05
2023-06-17T06:34:37.948Z,42.00
2023-06-17T06:35:37.950Z,41.17
2023-06-17T06:36:37.954Z,40.98
2023-06-17T06:37:37.938Z,42.30
2023-06-17T06:38:37.929Z,42.24
2023-06-17T06:39:37.921Z,42.44
2023-06-17T06:40:37.913Z,43.33
2023-06-17T06:41:37.908Z,42.78
2023-06-17T06:42:38.900Z,42.72
2023-06-17T06:43:37.905Z,41.61
2023-06-17T06:44:37.880Z,42.24
2023-06-17T06:45:37.911Z,42.66
2023-06-17T06:46:37.882Z,43.17
2023-06-17T06:47:37.913Z,42.70
2023-06-17T06:48:37.852Z,43.71
2023-06-17T06:49:37.852Z,44.60
2023-06-17T06:50:37.865Z,43.88
2023-06-17T06:51:37.851Z,44.94
2023-06-17T06:52:37.835Z,45.53
2023-06-17T06:53:37.836Z,43.59
2023-06-17T06:54:37.808Z,42.32
2023-06-17T06:55:37.810Z,41.00
2023-06-17T06:56:37.802Z,40.29
2023-06-17T06:57:37.852Z,40.47
2023-06-17T06:58:37.792Z,39.25
2023-06-17T06:59:38.404Z,38.31
2023-06-17T07:00:37.782Z,37.52
2023-06-17T07:01:37.818Z,37.50
2023-06-17T07:02:37.783Z,37.38
2023-06-17T07:03:37.760Z,36.98
2023-06-17T07:04:37.800Z,36.88
2023-06-17T07:05:37.743Z,36.47
2023-06-17T07:06:37.745Z,37.07
2023-06-17T07:07:37.729Z,38.01
2023-06-17T07:08:37.726Z,38.52
2023-06-17T07:09:37.728Z,38.07
2023-06-17T07:10:38.909Z,38.38
2023-06-17T07:11:37.707Z,39.58
2023-06-17T07:12:37.689Z,39.78
2023-06-17T07:13:37.684Z,39.44
2023-06-17T07:14:38.311Z,37.54
2023-06-17T07:15:37.666Z,37.11
2023-06-17T07:16:37.721Z,35.78
2023-06-17T07:17:37.692Z,36.18
2023-06-17T07:18:37.656Z,36.25
2023-06-17T07:19:37.655Z,35.83
2023-06-17T07:20:37.643Z,35.34
2023-06-17T07:21:38.322Z,34.93
2023-06-17T07:22:37.643Z,34.60
2023-06-17T07:23:37.641Z,34.48
2023-06-17T07:24:37.771Z,33.18
2023-06-17T07:25:37.613Z,32.99
2023-06-17T07:26:37.608Z,33.40
2023-06-17T07:27:37.598Z,33.20
2023-06-17T07:28:37.599Z,33.90
2023-06-17T07:29:38.395Z,33.30
2023-06-17T07:30:37.613Z,32.87
2023-06-17T07:31:37.590Z,32.57
2023-06-17T07:32:37.640Z,32.24
2023-06-17T07:33:37.569Z,32.63
2023-06-17T07:34:37.553Z,32.86
2023-06-17T07:35:37.557Z,32.86
2023-06-17T07:36:37.539Z,31.67
2023-06-17T07:37:37.537Z,32.65
2023-06-17T07:38:37.525Z,32.06
2023-06-17T07:39:38.556Z,31.85
2023-06-17T07:40:37.519Z,31.54
2023-06-17T07:41:37.520Z,31.34
2023-06-17T07:42:37.493Z,31.06
2023-06-17T07:43:37.512Z,30.94
2023-06-17T07:44:37.484Z,32.26
2023-06-17T07:45:37.483Z,31.85
2023-06-17T07:46:37.520Z,34.38
2023-06-17T07:47:37.492Z,34.90
2023-06-17T07:48:37.467Z,35.11
2023-06-17T07:49:37.452Z,35.54
2023-06-17T07:50:37.464Z,36.46
2023-06-17T07:51:37.432Z,37.26
2023-06-17T07:52:37.440Z,37.07
2023-06-17T07:53:37.426Z,37.44
2023-06-17T07:54:37.416Z,37.63
2023-06-17T07:55:37.434Z,37.34
2023-06-17T07:56:37.408Z,38.05
2023-06-17T07:57:37.388Z,38.05
2023-06-17T07:58:37.392Z,38.48
2023-06-17T07:59:37.386Z,38.99
2023-06-17T08:00:37.375Z,39.17
2023-06-17T08:01:37.373Z,38.74
2023-06-17T08:02:37.467Z,38.15
2023-06-17T08:03:37.395Z,37.55
2023-06-17T08:04:37.353Z,37.93
2023-06-17T08:05:37.330Z,37.13
2023-06-17T08:06:37.340Z,37.21
2023-06-17T08:07:37.337Z,36.80
2023-06-17T08:08:37.319Z,36.30
2023-06-17T08:09:37.310Z,36.91
2023-06-17T08:10:37.292Z,37.11
2023-06-17T08:11:37.915Z,36.42
2023-06-17T08:12:37.290Z,36.44
2023-06-17T08:13:37.282Z,36.77
2023-06-17T08:14:37.320Z,36.85
2023-06-17T08:15:37.273Z,35.67
2023-06-17T08:16:37.300Z,35.66
2023-06-17T08:17:37.303Z,36.80
2023-06-17T08:18:37.241Z,37.57
2023-06-17T08:19:37.228Z,37.79
2023-06-17T08:20:37.220Z,37.04
2023-06-17T08:21:37.232Z,37.85
2023-06-17T08:22:37.218Z,37.30
2023-06-17T08:23:37.206Z,37.10
2023-06-17T08:24:37.302Z,37.41
2023-06-17T08:25:37.206Z,36.69
2023-06-17T08:26:37.189Z,35.88
2023-06-17T08:27:38.163Z,35.59
2023-06-17T08:28:37.177Z,35.69
2023-06-17T08:29:37.166Z,35.95
2023-06-17T08:30:37.167Z,34.72
2023-06-17T08:31:37.162Z,34.23
2023-06-17T08:32:37.167Z,33.41
2023-06-17T08:33:37.124Z,33.12
2023-06-17T08:34:37.116Z,33.12
2023-06-17T08:35:37.113Z,32.63
2023-06-17T08:36:37.453Z,33.02
2023-06-17T08:37:37.226Z,32.82
2023-06-17T08:38:37.101Z,33.14
2023-06-17T08:39:38.238Z,33.94
2023-06-17T08:40:37.074Z,34.25
2023-06-17T08:41:37.072Z,33.43
2023-06-17T08:42:37.055Z,33.15
2023-06-17T08:43:37.053Z,32.14
2023-06-17T08:44:37.042Z,30.96
2023-06-17T08:45:38.756Z,30.08
2023-06-17T08:46:38.037Z,30.88
2023-06-17T08:47:37.064Z,30.10
2023-06-17T08:48:37.023Z,30.81
2023-06-17T08:49:37.035Z,30.84
2023-06-17T08:50:37.013Z,30.84
2023-06-17T08:51:37.012Z,30.43
2023-06-17T08:52:36.994Z,30.74
2023-06-17T08:53:36.990Z,30.66
2023-06-17T08:54:36.986Z,31.26
2023-06-17T08:55:36.968Z,31.16
2023-06-17T08:56:36.962Z,31.54
2023-06-17T08:57:36.975Z,32.24
2023-06-17T08:58:36.954Z,33.17
2023-06-17T08:59:36.944Z,32.89
2023-06-17T09:00:36.947Z,32.98
2023-06-17T09:01:37.000Z,33.10
2023-06-17T09:02:36.952Z,33.03
2023-06-17T09:03:36.915Z,33.13
2023-06-17T09:04:36.977Z,33.13
2023-06-17T09:05:36.906Z,32.72
2023-06-17T09:06:36.906Z,33.03
2023-06-17T09:07:36.886Z,32.84
2023-06-17T09:08:36.876Z,33.62
2023-06-17T09:09:36.891Z,34.01
2023-06-17T09:10:36.859Z,33.22
2023-06-17T09:11:36.844Z,33.00
2023-06-17T09:12:36.867Z,32.80
2023-06-17T09:13:36.847Z,33.03
2023-06-17T09:14:36.844Z,34.23
2023-06-17T09:15:36.825Z,33.54
2023-06-17T09:16:36.929Z,33.25
2023-06-17T09:17:36.824Z,32.97
2023-06-17T09:18:36.853Z,33.54
2023-06-17T09:19:36.808Z,33.25
2023-06-17T09:20:36.779Z,32.95
2023-06-17T09:21:36.771Z,33.13
2023-06-17T09:22:38.469Z,32.98
2023-06-17T09:23:36.771Z,33.28
2023-06-17T09:24:36.816Z,32.09
2023-06-17T09:25:36.753Z,30.81
2023-06-17T09:26:36.752Z,31.19
2023-06-17T09:27:36.722Z,30.99
2023-06-17T09:28:36.771Z,32.49
2023-06-17T09:29:37.867Z,32.21
2023-06-17T09:30:37.720Z,31.93
2023-06-17T09:31:36.705Z,33.72
2023-06-17T09:32:36.709Z,33.44
2023-06-17T09:33:36.707Z,33.75
2023-06-17T09:34:36.672Z,35.16
2023-06-17T09:35:38.425Z,34.58
2023-06-17T09:36:37.651Z,35.86
2023-06-17T09:37:38.855Z,35.77
2023-06-17T09:38:37.639Z,35.17
2023-06-17T09:39:36.652Z,33.69
2023-06-17T09:40:37.450Z,33.78
2023-06-17T09:41:36.633Z,33.70
2023-06-17T09:42:36.624Z,34.50
2023-06-17T09:43:36.614Z,34.80
2023-06-17T09:44:36.597Z,35.39
2023-06-17T09:45:36.617Z,34.80
2023-06-17T09:46:36.740Z,35.21
2023-06-17T09:47:38.131Z,36.60
2023-06-17T09:48:37.572Z,36.38
2023-06-17T09:49:36.565Z,36.28
2023-06-17T09:50:36.582Z,34.52
2023-06-17T09:51:36.549Z,34.71
2023-06-17T09:52:36.542Z,34.99
2023-06-17T09:53:38.303Z,34.80
2023-06-17T09:54:36.522Z,33.09
2023-06-17T09:55:36.527Z,32.89
2023-06-17T09:56:36.545Z,34.17
2023-06-17T09:57:36.504Z,33.07
2023-06-17T09:58:36.509Z,32.58
2023-06-17T09:59:36.488Z,33.39
2023-06-17T10:00:36.510Z,32.79
2023-06-17T10:01:36.489Z,33.11
2023-06-17T10:02:36.501Z,34.81
2023-06-17T10:03:36.649Z,34.92
2023-06-17T10:04:39.061Z,34.53
2023-06-17T10:05:37.450Z,34.63
2023-06-17T10:06:36.444Z,34.71
2023-06-17T10:07:36.424Z,33.31
2023-06-17T10:08:36.426Z,33.04
2023-06-17T10:09:36.407Z,33.64
2023-06-17T10:10:36.415Z,33.64
2023-06-17T10:11:36.402Z,34.63
2023-06-17T10:12:36.399Z,34.41
2023-06-17T10:13:36.381Z,34.52
2023-06-17T10:14:36.407Z,34.61
2023-06-17T10:15:36.370Z,34.91
2023-06-17T10:16:36.349Z,34.91
2023-06-17T10:17:36.427Z,34.61
2023-06-17T10:18:36.365Z,35.22
2023-06-17T10:19:36.367Z,35.03
2023-06-17T10:20:36.334Z,34.92
2023-06-17T10:21:36.992Z,35.42
2023-06-17T10:22:36.308Z,35.01
2023-06-17T10:23:36.314Z,35.49
2023-06-17T10:24:36.337Z,34.89
2023-06-17T10:25:36.309Z,34.59
2023-06-17T10:26:36.282Z,34.50
2023-06-17T10:27:36.902Z,34.78
2023-06-17T10:28:36.259Z,34.78
2023-06-17T10:29:36.246Z,34.78
2023-06-17T10:30:36.237Z,35.47
2023-06-17T10:31:36.244Z,34.56
2023-06-17T10:32:36.293Z,34.27
2023-06-17T10:33:36.216Z,33.45
2023-06-17T10:34:36.230Z,32.46
2023-06-17T10:35:36.196Z,32.27
2023-06-17T10:36:36.188Z,33.06
2023-06-17T10:37:36.186Z,34.06
2023-06-17T10:38:36.182Z,35.07
2023-06-17T10:39:36.182Z,34.89
2023-06-17T10:40:36.162Z,34.59
2023-06-17T10:41:36.156Z,35.69
2023-06-17T10:42:36.139Z,35.58
2023-06-17T10:43:36.136Z,35.27
2023-06-17T10:44:36.296Z,35.27
2023-06-17T10:45:36.149Z,34.27
2023-06-17T10:46:37.002Z,35.16
2023-06-17T10:47:36.114Z,34.55
2023-06-17T10:48:36.119Z,33.85
2023-06-17T10:49:36.084Z,34.74
2023-06-17T10:50:36.089Z,34.45
2023-06-17T10:51:52.124Z,34.83
2023-06-17T10:52:38.073Z,35.02
2023-06-17T10:53:36.068Z,34.53
2023-06-17T10:54:36.053Z,34.12
2023-06-17T10:55:36.922Z,33.33
2023-06-17T10:56:36.040Z,33.13
2023-06-17T10:57:36.036Z,33.13
2023-06-17T10:58:36.018Z,33.41
2023-06-17T10:59:36.007Z,33.41
2023-06-17T11:00:36.031Z,33.61
2023-06-17T11:01:36.025Z,33.39
2023-06-17T11:02:37.033Z,33.80
2023-06-17T11:03:36.276Z,33.70
2023-06-17T11:04:35.973Z,33.79
2023-06-17T11:05:35.962Z,33.20
2023-06-17T11:06:35.975Z,33.29
2023-06-17T11:07:35.989Z,33.29
2023-06-17T11:08:35.958Z,33.79
2023-06-17T11:09:35.937Z,33.00
2023-06-17T11:10:35.977Z,33.49
2023-06-17T11:11:35.941Z,32.88
2023-06-17T11:12:36.499Z,32.70
2023-06-17T11:13:35.927Z,33.79
2023-06-17T11:14:35.924Z,33.67
2023-06-17T11:15:35.903Z,33.77
2023-06-17T11:16:36.020Z,31.30
2023-06-17T11:17:35.911Z,31.48
2023-06-17T11:18:35.881Z,32.87
2023-06-17T11:19:35.887Z,31.78
2023-06-17T11:20:35.852Z,32.37
2023-06-17T11:21:35.860Z,31.86
2023-06-17T11:22:35.850Z,32.77
2023-06-17T11:23:35.863Z,32.80
2023-06-17T11:24:37.574Z,33.11
2023-06-17T11:25:44.185Z,32.71
2023-06-17T11:26:37.803Z,34.31
2023-06-17T11:27:35.797Z,33.62
2023-06-17T11:28:35.786Z,33.03
2023-06-17T11:29:35.800Z,34.01
2023-06-17T11:30:35.783Z,33.62
2023-06-17T11:31:35.770Z,33.42
2023-06-17T11:32:35.865Z,32.53
2023-06-17T11:33:37.813Z,32.52
2023-06-17T11:34:36.768Z,33.79
2023-06-17T11:35:35.738Z,32.78
2023-06-17T11:36:35.725Z,32.28
2023-06-17T11:37:35.713Z,31.78
2023-06-17T11:38:35.711Z,30.20
2023-06-17T11:39:38.133Z,29.72
2023-06-17T11:40:35.695Z,30.04
2023-06-17T11:41:35.678Z,31.23
2023-06-17T11:42:35.691Z,31.32
2023-06-17T11:43:35.672Z,31.32
2023-06-17T11:44:35.672Z,31.22
2023-06-17T11:45:36.539Z,31.51
2023-06-17T11:46:35.716Z,32.21
2023-06-17T11:47:35.693Z,32.39
2023-06-17T11:48:35.650Z,31.59
2023-06-17T11:49:35.671Z,31.57
2023-06-17T11:50:36.521Z,30.19
2023-06-17T11:51:35.612Z,30.17
2023-06-17T11:52:35.611Z,30.94
2023-06-17T11:53:35.604Z,31.04
2023-06-17T11:54:35.600Z,30.75
2023-06-17T11:55:35.586Z,31.32
2023-06-17T11:56:35.591Z,31.32
2023-06-17T11:57:35.547Z,30.34
2023-06-17T11:58:35.555Z,30.43
2023-06-17T11:59:35.564Z,30.22
2023-06-17T12:00:35.541Z,30.22
2023-06-17T12:01:35.595Z,31.42
2023-06-17T12:02:37.590Z,30.73
2023-06-17T12:03:35.606Z,30.82
2023-06-17T12:04:35.620Z,31.03
2023-06-17T12:05:35.513Z,31.13
2023-06-17T12:06:35.497Z,31.52
2023-06-17T12:07:35.479Z,31.73
2023-06-17T12:08:35.492Z,31.52
2023-06-17T12:09:35.468Z,31.54
2023-06-17T12:10:35.471Z,31.72
2023-06-17T12:11:35.454Z,31.82
2023-06-17T12:12:35.469Z,31.72
2023-06-17T12:13:35.441Z,31.13
2023-06-17T12:14:35.431Z,31.51
2023-06-17T12:15:37.249Z,31.60
2023-06-17T12:16:36.427Z,31.51
2023-06-17T12:17:35.451Z,30.54
2023-06-17T12:18:35.396Z,30.44
2023-06-17T12:19:35.417Z,30.03
2023-06-17T12:20:35.379Z,31.21
2023-06-17T12:21:35.413Z,30.91
2023-06-17T12:22:35.386Z,30.03
2023-06-17T12:23:35.388Z,29.72
2023-06-17T12:24:35.485Z,30.21
2023-06-17T12:25:35.391Z,29.92
2023-06-17T12:26:35.357Z,30.31
2023-06-17T12:27:36.974Z,29.92
2023-06-17T12:28:35.344Z,30.02
2023-06-17T12:29:35.306Z,30.31
2023-06-17T12:30:35.323Z,29.46
2023-06-17T12:31:35.296Z,29.99
2023-06-17T12:32:35.323Z,30.48
2023-06-17T12:33:35.285Z,30.51
2023-06-17T12:34:35.280Z,30.21
2023-06-17T12:35:35.268Z,30.51
2023-06-17T12:36:35.256Z,31.01
2023-06-17T12:37:35.291Z,30.89
2023-06-17T12:38:35.255Z,30.89
2023-06-17T12:39:35.572Z,30.99
2023-06-17T12:40:35.231Z,31.20
2023-06-17T12:41:35.241Z,31.10
2023-06-17T12:42:35.214Z,31.40
2023-06-17T12:43:35.199Z,30.91
2023-06-17T12:44:35.200Z,29.82
2023-06-17T12:45:35.270Z,30.71
2023-06-17T12:46:35.285Z,30.89
2023-06-17T12:47:35.260Z,30.89
2023-06-17T12:48:35.177Z,31.37
2023-06-17T12:49:35.167Z,29.50
2023-06-17T12:50:35.168Z,30.58
2023-06-17T12:51:35.156Z,29.39
2023-06-17T12:52:35.134Z,29.50
2023-06-17T12:53:35.120Z,30.79